NKS1608 KLAS-KSMF
Flight info
| Callsign | NKS1608 |
|---|---|
| Flight time | 1h 4m |
| Altitude | 32000 |
| Route | JOHKR5 KENNO DONNR SLMMR5 |
| Aircraft | A319/M-SDE3FGHIRWY/LB1 |
Departure
| Time | 2026-05-03 23:51 |
|---|---|
| Airport | Harry Reid International Airport (KLAS) |
Arrival
| Time | 2026-05-04 00:56 |
|---|---|
| Airport | Sacramento International Airport (KSMF) |
| Time | Latitude | Longitude | Altitude | Speed | Heading |
|---|---|---|---|---|---|
| 2026-05-03 23:19 | 36.08482 | -115.15447 | 2112 ft | 0 kts | 10° |
| 2026-05-03 23:37 | 36.08477 | -115.15448 | 2113 ft | 2 kts | 10° |
| 2026-05-03 23:38 | 36.08463 | -115.15451 | 2113 ft | 2 kts | 10° |
| 2026-05-03 23:38 | 36.08448 | -115.15454 | 2114 ft | 2 kts | 10° |
| 2026-05-03 23:38 | 36.08434 | -115.15457 | 2114 ft | 1 kts | 10° |
| 2026-05-03 23:38 | 36.08425 | -115.15459 | 2115 ft | 1 kts | 349° |
| 2026-05-03 23:39 | 36.08416 | -115.15451 | 2115 ft | 1 kts | 290° |
| 2026-05-03 23:39 | 36.08417 | -115.15437 | 2114 ft | 0 kts | 238° |
| 2026-05-03 23:39 | 36.08421 | -115.15432 | 2114 ft | 1 kts | 226° |
| 2026-05-03 23:39 | 36.08423 | -115.15430 | 2114 ft | 0 kts | 230° |
| 2026-05-03 23:42 | 36.08395 | -115.15458 | 2115 ft | 8 kts | 214° |
| 2026-05-03 23:42 | 36.08348 | -115.15514 | 2118 ft | 9 kts | 241° |
| 2026-05-03 23:43 | 36.08310 | -115.15569 | 2120 ft | 8 kts | 193° |
| 2026-05-03 23:43 | 36.08242 | -115.15545 | 2121 ft | 11 kts | 154° |
| 2026-05-03 23:43 | 36.08166 | -115.15498 | 2122 ft | 13 kts | 154° |
| 2026-05-03 23:43 | 36.08057 | -115.15437 | 2122 ft | 19 kts | 156° |
| 2026-05-03 23:44 | 36.07921 | -115.15360 | 2123 ft | 22 kts | 154° |
| 2026-05-03 23:44 | 36.07807 | -115.15237 | 2123 ft | 23 kts | 101° |
| 2026-05-03 23:44 | 36.07799 | -115.15022 | 2116 ft | 26 kts | 97° |
| 2026-05-03 23:44 | 36.07784 | -115.14786 | 2108 ft | 29 kts | 94° |
| 2026-05-03 23:45 | 36.07764 | -115.14526 | 2100 ft | 31 kts | 96° |
| 2026-05-03 23:45 | 36.07752 | -115.14243 | 2090 ft | 34 kts | 90° |
| 2026-05-03 23:45 | 36.07753 | -115.13978 | 2082 ft | 26 kts | 91° |
| 2026-05-03 23:45 | 36.07754 | -115.13743 | 2076 ft | 28 kts | 90° |
| 2026-05-03 23:46 | 36.07753 | -115.13487 | 2066 ft | 30 kts | 90° |
| 2026-05-03 23:46 | 36.07755 | -115.13275 | 2061 ft | 24 kts | 91° |
| 2026-05-03 23:46 | 36.07753 | -115.13052 | 2055 ft | 27 kts | 89° |
| 2026-05-03 23:46 | 36.07755 | -115.12814 | 2051 ft | 28 kts | 90° |
| 2026-05-03 23:47 | 36.07755 | -115.12563 | 2047 ft | 29 kts | 90° |
| 2026-05-03 23:47 | 36.07754 | -115.12308 | 2042 ft | 25 kts | 88° |
| 2026-05-03 23:47 | 36.07755 | -115.12172 | 2039 ft | 9 kts | 102° |
| 2026-05-03 23:47 | 36.07745 | -115.12148 | 2038 ft | 0 kts | 129° |
| 2026-05-03 23:48 | 36.07746 | -115.12148 | 2038 ft | 0 kts | 129° |
| 2026-05-03 23:48 | 36.07745 | -115.12148 | 2038 ft | 0 kts | 129° |
| 2026-05-03 23:48 | 36.07746 | -115.12148 | 2038 ft | 0 kts | 129° |
| 2026-05-03 23:49 | 36.07745 | -115.12148 | 2038 ft | 0 kts | 129° |
| 2026-05-03 23:50 | 36.07738 | -115.12138 | 2038 ft | 3 kts | 134° |
| 2026-05-03 23:50 | 36.07695 | -115.12123 | 2039 ft | 10 kts | 177° |
| 2026-05-03 23:50 | 36.07640 | -115.12174 | 2040 ft | 12 kts | 263° |
| 2026-05-03 23:50 | 36.07638 | -115.12431 | 2046 ft | 58 kts | 269° |
| 2026-05-03 23:51 | 36.07639 | -115.13197 | 2062 ft | 117 kts | 269° |
| 2026-05-03 23:51 | 36.07637 | -115.14417 | 2101 ft | 164 kts | 270° |
| 2026-05-03 23:51 | 36.07648 | -115.15897 | 2513 ft | 173 kts | 269° |
| 2026-05-03 23:51 | 36.07700 | -115.17371 | 3100 ft | 174 kts | 269° |
| 2026-05-03 23:52 | 36.07806 | -115.18846 | 3751 ft | 175 kts | 271° |
| 2026-05-03 23:52 | 36.07877 | -115.20348 | 4203 ft | 177 kts | 262° |
| 2026-05-03 23:52 | 36.07664 | -115.21878 | 4503 ft | 187 kts | 252° |
| 2026-05-03 23:52 | 36.07343 | -115.23486 | 4837 ft | 199 kts | 252° |
| 2026-05-03 23:53 | 36.06988 | -115.25183 | 5121 ft | 213 kts | 246° |
| 2026-05-03 23:53 | 36.06204 | -115.26800 | 5449 ft | 225 kts | 219° |
| 2026-05-03 23:53 | 36.04789 | -115.27681 | 5802 ft | 237 kts | 192° |
| 2026-05-03 23:53 | 36.03150 | -115.28120 | 6216 ft | 253 kts | 191° |
| 2026-05-03 23:54 | 36.01382 | -115.28638 | 6680 ft | 268 kts | 194° |
| 2026-05-03 23:54 | 35.99569 | -115.29361 | 7302 ft | 278 kts | 199° |
| 2026-05-03 23:54 | 35.97811 | -115.30362 | 8110 ft | 282 kts | 205° |
| 2026-05-03 23:54 | 35.96102 | -115.31485 | 8984 ft | 281 kts | 206° |
| 2026-05-03 23:55 | 35.94380 | -115.32626 | 9776 ft | 284 kts | 206° |
| 2026-05-03 23:55 | 35.92637 | -115.33776 | 10458 ft | 287 kts | 205° |
| 2026-05-03 23:55 | 35.90870 | -115.34947 | 10856 ft | 288 kts | 208° |
| 2026-05-03 23:55 | 35.89400 | -115.36523 | 10986 ft | 296 kts | 231° |
| 2026-05-03 23:56 | 35.88574 | -115.38899 | 10991 ft | 305 kts | 257° |
| 2026-05-03 23:56 | 35.88504 | -115.41544 | 10999 ft | 310 kts | 268° |
| 2026-05-03 23:56 | 35.88586 | -115.44217 | 10993 ft | 310 kts | 269° |
| 2026-05-03 23:56 | 35.88674 | -115.46893 | 10992 ft | 310 kts | 268° |
| 2026-05-03 23:57 | 35.88747 | -115.49526 | 10992 ft | 310 kts | 268° |
| 2026-05-03 23:57 | 35.88808 | -115.52182 | 10991 ft | 310 kts | 268° |
| 2026-05-03 23:57 | 35.88862 | -115.54835 | 10992 ft | 310 kts | 268° |
| 2026-05-03 23:57 | 35.88915 | -115.57499 | 11003 ft | 314 kts | 268° |
| 2026-05-03 23:58 | 35.88968 | -115.60262 | 11216 ft | 328 kts | 268° |
| 2026-05-03 23:58 | 35.89021 | -115.63161 | 11570 ft | 346 kts | 268° |
| 2026-05-03 23:58 | 35.89075 | -115.66183 | 12180 ft | 354 kts | 267° |
| 2026-05-03 23:58 | 35.89133 | -115.69268 | 12980 ft | 356 kts | 267° |
| 2026-05-03 23:59 | 35.89192 | -115.72450 | 13793 ft | 357 kts | 267° |
| 2026-05-03 23:59 | 35.89247 | -115.75547 | 14519 ft | 359 kts | 267° |
| 2026-05-03 23:59 | 35.89301 | -115.78616 | 15214 ft | 361 kts | 267° |
| 2026-05-03 23:59 | 35.89354 | -115.81733 | 15940 ft | 363 kts | 267° |
| 2026-05-04 00:00 | 35.89406 | -115.84840 | 16659 ft | 364 kts | 267° |
| 2026-05-04 00:00 | 35.89459 | -115.87982 | 17357 ft | 366 kts | 267° |
| 2026-05-04 00:00 | 35.89587 | -115.91097 | 18003 ft | 372 kts | 275° |
| 2026-05-04 00:00 | 35.90371 | -115.94186 | 18589 ft | 384 kts | 292° |
| 2026-05-04 00:01 | 35.91930 | -115.96904 | 19219 ft | 395 kts | 308° |
| 2026-05-04 00:01 | 35.93872 | -115.99347 | 19862 ft | 398 kts | 311° |
| 2026-05-04 00:01 | 35.95849 | -116.01727 | 20434 ft | 402 kts | 311° |
| 2026-05-04 00:01 | 35.97870 | -116.04164 | 21000 ft | 405 kts | 310° |
| 2026-05-04 00:02 | 35.99862 | -116.06589 | 21460 ft | 411 kts | 310° |
| 2026-05-04 00:02 | 36.01909 | -116.09100 | 21984 ft | 415 kts | 310° |
| 2026-05-04 00:02 | 36.03936 | -116.11598 | 22531 ft | 417 kts | 309° |
| 2026-05-04 00:02 | 36.05987 | -116.14133 | 23066 ft | 420 kts | 309° |
| 2026-05-04 00:03 | 36.08073 | -116.16714 | 23589 ft | 422 kts | 309° |
| 2026-05-04 00:03 | 36.10139 | -116.19276 | 24085 ft | 425 kts | 309° |
| 2026-05-04 00:03 | 36.12244 | -116.21875 | 24567 ft | 427 kts | 309° |
| 2026-05-04 00:03 | 36.14345 | -116.24464 | 25066 ft | 428 kts | 308° |
| 2026-05-04 00:04 | 36.16446 | -116.27060 | 25684 ft | 425 kts | 308° |
| 2026-05-04 00:04 | 36.18504 | -116.29611 | 26322 ft | 422 kts | 307° |
| 2026-05-04 00:04 | 36.20549 | -116.32155 | 26939 ft | 418 kts | 307° |
| 2026-05-04 00:04 | 36.22609 | -116.34727 | 27524 ft | 415 kts | 307° |
| 2026-05-04 00:05 | 36.24625 | -116.37249 | 28076 ft | 412 kts | 306° |
| 2026-05-04 00:05 | 36.26621 | -116.39745 | 28595 ft | 410 kts | 306° |
| 2026-05-04 00:05 | 36.28637 | -116.42256 | 29100 ft | 409 kts | 307° |
| 2026-05-04 00:05 | 36.30669 | -116.44694 | 29590 ft | 408 kts | 307° |
| 2026-05-04 00:06 | 36.32721 | -116.47112 | 30079 ft | 405 kts | 307° |
| 2026-05-04 00:06 | 36.34753 | -116.49511 | 30512 ft | 404 kts | 307° |
| 2026-05-04 00:06 | 36.36780 | -116.51916 | 30908 ft | 403 kts | 306° |
| 2026-05-04 00:06 | 36.38783 | -116.54303 | 31290 ft | 402 kts | 306° |
| 2026-05-04 00:07 | 36.40801 | -116.56712 | 31655 ft | 401 kts | 306° |
| 2026-05-04 00:07 | 36.42808 | -116.59113 | 31783 ft | 402 kts | 306° |
| 2026-05-04 00:07 | 36.46860 | -116.63856 | 31791 ft | 404 kts | 308° |
| 2026-05-04 00:08 | 36.51012 | -116.68554 | 31794 ft | 403 kts | 307° |
| 2026-05-04 00:08 | 36.55152 | -116.73270 | 31794 ft | 405 kts | 307° |
| 2026-05-04 00:09 | 36.59197 | -116.78122 | 31795 ft | 398 kts | 301° |
| 2026-05-04 00:09 | 36.62547 | -116.83520 | 31799 ft | 395 kts | 297° |
| 2026-05-04 00:10 | 36.65825 | -116.89074 | 31802 ft | 400 kts | 297° |
| 2026-05-04 00:10 | 36.69259 | -116.94540 | 31804 ft | 410 kts | 306° |
| 2026-05-04 00:11 | 36.71475 | -116.96906 | 31809 ft | 421 kts | 315° |
| 2026-05-04 00:11 | 36.73985 | -116.98860 | 31813 ft | 431 kts | 324° |
| 2026-05-04 00:11 | 36.79445 | -117.02066 | 31817 ft | 430 kts | 327° |
| 2026-05-04 00:12 | 36.84824 | -117.05132 | 31827 ft | 424 kts | 327° |
| 2026-05-04 00:12 | 36.90164 | -117.08236 | 31834 ft | 424 kts | 327° |
| 2026-05-04 00:13 | 36.96244 | -117.11794 | 31841 ft | 425 kts | 327° |
| 2026-05-04 00:13 | 37.06899 | -117.18053 | 31847 ft | 426 kts | 327° |
| 2026-05-04 00:14 | 37.17129 | -117.24067 | 31850 ft | 427 kts | 328° |
| 2026-05-04 00:14 | 37.27488 | -117.30557 | 31863 ft | 422 kts | 321° |
| 2026-05-04 00:15 | 37.35799 | -117.39932 | 31880 ft | 412 kts | 303° |
| 2026-05-04 00:15 | 37.42947 | -117.50937 | 31883 ft | 416 kts | 304° |
| 2026-05-04 00:16 | 37.50197 | -117.62052 | 31885 ft | 419 kts | 304° |
| 2026-05-04 00:16 | 37.57151 | -117.72760 | 31885 ft | 421 kts | 304° |
| 2026-05-04 00:17 | 37.63519 | -117.82580 | 31886 ft | 423 kts | 304° |
| 2026-05-04 00:17 | 37.70557 | -117.93465 | 31887 ft | 422 kts | 306° |
| 2026-05-04 00:18 | 37.74004 | -117.99101 | 31887 ft | 408 kts | 302° |
| 2026-05-04 00:18 | 37.77179 | -118.04675 | 31883 ft | 402 kts | 302° |
| 2026-05-04 00:18 | 37.83566 | -118.15951 | 31887 ft | 410 kts | 302° |
| 2026-05-04 00:19 | 37.90012 | -118.27359 | 31902 ft | 410 kts | 302° |
| 2026-05-04 00:19 | 37.96442 | -118.38776 | 31916 ft | 409 kts | 302° |
| 2026-05-04 00:20 | 38.02906 | -118.50319 | 31919 ft | 414 kts | 303° |
| 2026-05-04 00:20 | 38.09246 | -118.61649 | 31923 ft | 415 kts | 303° |
| 2026-05-04 00:21 | 38.15568 | -118.72950 | 31922 ft | 417 kts | 303° |
| 2026-05-04 00:21 | 38.21652 | -118.83899 | 31923 ft | 419 kts | 303° |
| 2026-05-04 00:22 | 38.27352 | -118.94195 | 31930 ft | 420 kts | 304° |
| 2026-05-04 00:22 | 38.32556 | -119.03624 | 31950 ft | 421 kts | 304° |
| 2026-05-04 00:23 | 38.37602 | -119.12793 | 31982 ft | 422 kts | 304° |
| 2026-05-04 00:23 | 38.42765 | -119.22201 | 32011 ft | 422 kts | 304° |
| 2026-05-04 00:24 | 38.59944 | -119.53710 | 32027 ft | 423 kts | 304° |
| 2026-05-04 00:24 | 38.61612 | -119.56786 | 31924 ft | 425 kts | 304° |
| 2026-05-04 00:24 | 38.63301 | -119.59905 | 31572 ft | 424 kts | 305° |
| 2026-05-04 00:25 | 38.64984 | -119.63022 | 30966 ft | 427 kts | 306° |
| 2026-05-04 00:25 | 38.66663 | -119.66138 | 30258 ft | 432 kts | 306° |
| 2026-05-04 00:25 | 38.68391 | -119.69354 | 29510 ft | 438 kts | 306° |
| 2026-05-04 00:25 | 38.70134 | -119.72585 | 28749 ft | 443 kts | 306° |
| 2026-05-04 00:26 | 38.71915 | -119.75884 | 27962 ft | 448 kts | 306° |
| 2026-05-04 00:26 | 38.73698 | -119.79190 | 27174 ft | 451 kts | 306° |
| 2026-05-04 00:26 | 38.75478 | -119.82496 | 26447 ft | 453 kts | 306° |
| 2026-05-04 00:26 | 38.77243 | -119.85778 | 25778 ft | 453 kts | 305° |
| 2026-05-04 00:27 | 38.79018 | -119.89085 | 25102 ft | 453 kts | 305° |
| 2026-05-04 00:27 | 38.80806 | -119.92419 | 24539 ft | 449 kts | 305° |
| 2026-05-04 00:27 | 38.82550 | -119.95675 | 24107 ft | 443 kts | 305° |
| 2026-05-04 00:27 | 38.84288 | -119.98924 | 23639 ft | 438 kts | 305° |
| 2026-05-04 00:28 | 38.86003 | -120.02137 | 23144 ft | 435 kts | 305° |
| 2026-05-04 00:28 | 38.87712 | -120.05341 | 22606 ft | 433 kts | 305° |
| 2026-05-04 00:28 | 38.89412 | -120.08527 | 22153 ft | 428 kts | 305° |
| 2026-05-04 00:28 | 38.91102 | -120.11699 | 21683 ft | 425 kts | 305° |
| 2026-05-04 00:29 | 38.92755 | -120.14805 | 21205 ft | 422 kts | 304° |
| 2026-05-04 00:29 | 38.94398 | -120.17897 | 20737 ft | 419 kts | 304° |
| 2026-05-04 00:29 | 38.96033 | -120.20974 | 20270 ft | 416 kts | 304° |
| 2026-05-04 00:29 | 38.97659 | -120.24036 | 20028 ft | 406 kts | 304° |
| 2026-05-04 00:30 | 38.99078 | -120.27087 | 20008 ft | 390 kts | 296° |
| 2026-05-04 00:30 | 39.00068 | -120.30235 | 19782 ft | 381 kts | 287° |
| 2026-05-04 00:30 | 39.00761 | -120.33536 | 19460 ft | 376 kts | 283° |
| 2026-05-04 00:30 | 39.01353 | -120.36752 | 19146 ft | 371 kts | 282° |
| 2026-05-04 00:31 | 39.01937 | -120.39969 | 18835 ft | 366 kts | 282° |
| 2026-05-04 00:31 | 39.02519 | -120.43121 | 18530 ft | 361 kts | 283° |
| 2026-05-04 00:31 | 39.03110 | -120.46271 | 18224 ft | 356 kts | 283° |
| 2026-05-04 00:31 | 39.03693 | -120.49345 | 17927 ft | 351 kts | 283° |
| 2026-05-04 00:32 | 39.04266 | -120.52356 | 17637 ft | 346 kts | 283° |
| 2026-05-04 00:32 | 39.04837 | -120.55357 | 17326 ft | 343 kts | 283° |
| 2026-05-04 00:32 | 39.05398 | -120.58305 | 16983 ft | 340 kts | 283° |
| 2026-05-04 00:32 | 39.05954 | -120.61231 | 16621 ft | 338 kts | 283° |
| 2026-05-04 00:33 | 39.06506 | -120.64138 | 16271 ft | 336 kts | 283° |
| 2026-05-04 00:33 | 39.07077 | -120.69968 | 15526 ft | 330 kts | 261° |
| 2026-05-04 00:33 | 39.06592 | -120.72729 | 15187 ft | 325 kts | 250° |
| 2026-05-04 00:34 | 39.05912 | -120.75360 | 14849 ft | 323 kts | 248° |
| 2026-05-04 00:34 | 39.05169 | -120.78072 | 14494 ft | 321 kts | 248° |
| 2026-05-04 00:34 | 39.04430 | -120.80788 | 14133 ft | 319 kts | 248° |
| 2026-05-04 00:34 | 39.03710 | -120.83472 | 13782 ft | 317 kts | 249° |
| 2026-05-04 00:35 | 39.03003 | -120.86143 | 13429 ft | 315 kts | 249° |
| 2026-05-04 00:35 | 39.02310 | -120.88777 | 13077 ft | 313 kts | 249° |
| 2026-05-04 00:35 | 39.01619 | -120.91418 | 12725 ft | 311 kts | 249° |
| 2026-05-04 00:35 | 39.00933 | -120.94043 | 12365 ft | 309 kts | 249° |
| 2026-05-04 00:36 | 39.00251 | -120.96652 | 12005 ft | 308 kts | 249° |
| 2026-05-04 00:36 | 38.99575 | -120.99234 | 11660 ft | 305 kts | 249° |
| 2026-05-04 00:36 | 38.98899 | -121.01812 | 11314 ft | 303 kts | 249° |
| 2026-05-04 00:36 | 38.98231 | -121.04355 | 10969 ft | 301 kts | 249° |
| 2026-05-04 00:37 | 38.97555 | -121.06929 | 10619 ft | 299 kts | 249° |
| 2026-05-04 00:37 | 38.96889 | -121.09463 | 10275 ft | 297 kts | 249° |
| 2026-05-04 00:37 | 38.96231 | -121.11964 | 9934 ft | 295 kts | 249° |
| 2026-05-04 00:37 | 38.95581 | -121.14431 | 9595 ft | 293 kts | 249° |
| 2026-05-04 00:38 | 38.94923 | -121.16923 | 9248 ft | 291 kts | 249° |
| 2026-05-04 00:38 | 38.94275 | -121.19373 | 8908 ft | 289 kts | 249° |
| 2026-05-04 00:38 | 38.93634 | -121.21793 | 8567 ft | 287 kts | 249° |
| 2026-05-04 00:38 | 38.92993 | -121.24212 | 8213 ft | 286 kts | 249° |
| 2026-05-04 00:39 | 38.92352 | -121.26625 | 7864 ft | 284 kts | 249° |
| 2026-05-04 00:39 | 38.91712 | -121.29034 | 7516 ft | 283 kts | 249° |
| 2026-05-04 00:39 | 38.91086 | -121.31387 | 7174 ft | 282 kts | 249° |
| 2026-05-04 00:39 | 38.90453 | -121.33765 | 6830 ft | 280 kts | 249° |
| 2026-05-04 00:40 | 38.89823 | -121.36128 | 6493 ft | 279 kts | 249° |
| 2026-05-04 00:40 | 38.89200 | -121.38470 | 6227 ft | 274 kts | 249° |
| 2026-05-04 00:40 | 38.88568 | -121.40767 | 5975 ft | 270 kts | 248° |
| 2026-05-04 00:40 | 38.87929 | -121.43019 | 5721 ft | 266 kts | 248° |
| 2026-05-04 00:41 | 38.87293 | -121.45245 | 5471 ft | 262 kts | 248° |
| 2026-05-04 00:41 | 38.86675 | -121.47401 | 5230 ft | 258 kts | 248° |
| 2026-05-04 00:41 | 38.86063 | -121.49546 | 4991 ft | 254 kts | 248° |
| 2026-05-04 00:41 | 38.85460 | -121.51658 | 4756 ft | 250 kts | 248° |
| 2026-05-04 00:42 | 38.84866 | -121.53743 | 4524 ft | 246 kts | 248° |
| 2026-05-04 00:42 | 38.84283 | -121.55789 | 4296 ft | 242 kts | 249° |
| 2026-05-04 00:42 | 38.83711 | -121.57793 | 4080 ft | 238 kts | 249° |
| 2026-05-04 00:42 | 38.82994 | -121.59621 | 3990 ft | 225 kts | 227° |
| 2026-05-04 00:43 | 38.81730 | -121.60762 | 3456 ft | 232 kts | 199° |
| 2026-05-04 00:43 | 38.80109 | -121.60902 | 2683 ft | 241 kts | 173° |
| 2026-05-04 00:43 | 38.78494 | -121.60410 | 2191 ft | 237 kts | 167° |
| 2026-05-04 00:43 | 38.76906 | -121.60019 | 1803 ft | 229 kts | 177° |
| 2026-05-04 00:44 | 38.75342 | -121.60022 | 1538 ft | 216 kts | 183° |
| 2026-05-04 00:44 | 38.73812 | -121.60091 | 1668 ft | 239 kts | 183° |
| 2026-05-04 00:44 | 38.72070 | -121.60169 | 2373 ft | 250 kts | 184° |
| 2026-05-04 00:44 | 38.70515 | -121.60231 | 3074 ft | 209 kts | 184° |
| 2026-05-04 00:45 | 38.69067 | -121.60327 | 3349 ft | 209 kts | 192° |
| 2026-05-04 00:45 | 38.67739 | -121.60989 | 3682 ft | 208 kts | 215° |
| 2026-05-04 00:45 | 38.66720 | -121.62299 | 4141 ft | 212 kts | 237° |
| 2026-05-04 00:45 | 38.66168 | -121.64069 | 4570 ft | 217 kts | 259° |
| 2026-05-04 00:46 | 38.66205 | -121.66013 | 4773 ft | 223 kts | 282° |
| 2026-05-04 00:46 | 38.66895 | -121.67790 | 4701 ft | 228 kts | 310° |
| 2026-05-04 00:46 | 38.68201 | -121.68921 | 4463 ft | 228 kts | 342° |
| 2026-05-04 00:46 | 38.69753 | -121.69054 | 4291 ft | 225 kts | 7° |
| 2026-05-04 00:47 | 38.71314 | -121.68769 | 4174 ft | 228 kts | 8° |
| 2026-05-04 00:47 | 38.72899 | -121.68482 | 3727 ft | 237 kts | 7° |
| 2026-05-04 00:47 | 38.74556 | -121.68194 | 3276 ft | 245 kts | 6° |
| 2026-05-04 00:47 | 38.76232 | -121.67921 | 3058 ft | 240 kts | 5° |
| 2026-05-04 00:48 | 38.77868 | -121.67655 | 2949 ft | 232 kts | 6° |
| 2026-05-04 00:48 | 38.79446 | -121.67346 | 2761 ft | 228 kts | 8° |
| 2026-05-04 00:48 | 38.80998 | -121.66983 | 2427 ft | 232 kts | 10° |
| 2026-05-04 00:48 | 38.82578 | -121.66572 | 2219 ft | 228 kts | 10° |
| 2026-05-04 00:49 | 38.84122 | -121.66143 | 2043 ft | 223 kts | 12° |
| 2026-05-04 00:49 | 38.85617 | -121.65672 | 2022 ft | 228 kts | 13° |
| 2026-05-04 00:49 | 38.87165 | -121.65175 | 2006 ft | 231 kts | 13° |
| 2026-05-04 00:49 | 38.88723 | -121.64674 | 2003 ft | 231 kts | 15° |
| 2026-05-04 00:50 | 38.90152 | -121.63744 | 1988 ft | 230 kts | 44° |
| 2026-05-04 00:50 | 38.90997 | -121.62030 | 1996 ft | 228 kts | 77° |
| 2026-05-04 00:50 | 38.90970 | -121.60053 | 1990 ft | 219 kts | 112° |
| 2026-05-04 00:50 | 38.90119 | -121.58560 | 1981 ft | 201 kts | 149° |
| 2026-05-04 00:51 | 38.88855 | -121.58118 | 1981 ft | 182 kts | 187° |
| 2026-05-04 00:51 | 38.87649 | -121.58514 | 2017 ft | 181 kts | 199° |
| 2026-05-04 00:51 | 38.86468 | -121.59084 | 2005 ft | 180 kts | 201° |
| 2026-05-04 00:51 | 38.85281 | -121.59561 | 2002 ft | 179 kts | 193° |
| 2026-05-04 00:52 | 38.84058 | -121.59817 | 2003 ft | 180 kts | 187° |
| 2026-05-04 00:52 | 38.82793 | -121.59930 | 2003 ft | 180 kts | 183° |
| 2026-05-04 00:52 | 38.81547 | -121.59966 | 2003 ft | 178 kts | 182° |
| 2026-05-04 00:52 | 38.80368 | -121.59978 | 1906 ft | 161 kts | 181° |
| 2026-05-04 00:53 | 38.79314 | -121.59988 | 1733 ft | 145 kts | 182° |
| 2026-05-04 00:53 | 38.78347 | -121.60001 | 1519 ft | 133 kts | 182° |
| 2026-05-04 00:53 | 38.77439 | -121.60014 | 1343 ft | 129 kts | 180° |
| 2026-05-04 00:53 | 38.76552 | -121.60017 | 1221 ft | 128 kts | 181° |
| 2026-05-04 00:54 | 38.75652 | -121.60031 | 1024 ft | 129 kts | 181° |
| 2026-05-04 00:54 | 38.74772 | -121.60050 | 821 ft | 128 kts | 180° |
| 2026-05-04 00:54 | 38.73880 | -121.60054 | 637 ft | 127 kts | 181° |
| 2026-05-04 00:54 | 38.72996 | -121.60075 | 506 ft | 127 kts | 181° |
| 2026-05-04 00:55 | 38.72115 | -121.60081 | 331 ft | 126 kts | 180° |
| 2026-05-04 00:55 | 38.71242 | -121.60101 | 173 ft | 125 kts | 181° |
| 2026-05-04 00:55 | 38.70371 | -121.60117 | 48 ft | 122 kts | 181° |
| 2026-05-04 00:55 | 38.69598 | -121.60126 | 30 ft | 92 kts | 180° |
| 2026-05-04 00:56 | 38.69121 | -121.60136 | 30 ft | 42 kts | 181° |
| 2026-05-04 00:56 | 38.68921 | -121.60141 | 30 ft | 26 kts | 180° |
| 2026-05-04 00:56 | 38.68737 | -121.60144 | 30 ft | 26 kts | 181° |
| 2026-05-04 00:56 | 38.68557 | -121.60146 | 30 ft | 25 kts | 180° |
| 2026-05-04 00:57 | 38.68402 | -121.60123 | 29 ft | 20 kts | 134° |
| 2026-05-04 00:57 | 38.68388 | -121.59940 | 29 ft | 21 kts | 72° |
| 2026-05-04 00:57 | 38.68523 | -121.59882 | 29 ft | 22 kts | 1° |
| 2026-05-04 00:57 | 38.68684 | -121.59882 | 29 ft | 23 kts | 0° |
| 2026-05-04 00:58 | 38.68853 | -121.59879 | 29 ft | 24 kts | 0° |
| 2026-05-04 00:58 | 38.69029 | -121.59876 | 29 ft | 25 kts | 0° |
| 2026-05-04 00:58 | 38.69211 | -121.59873 | 29 ft | 26 kts | 0° |
| 2026-05-04 00:58 | 38.69397 | -121.59870 | 29 ft | 27 kts | 0° |
| 2026-05-04 00:59 | 38.69589 | -121.59867 | 29 ft | 27 kts | 0° |
| 2026-05-04 00:59 | 38.69701 | -121.59795 | 29 ft | 17 kts | 79° |
| 2026-05-04 00:59 | 38.69700 | -121.59634 | 29 ft | 18 kts | 95° |
| 2026-05-04 00:59 | 38.69699 | -121.59459 | 29 ft | 20 kts | 90° |
| 2026-05-04 01:00 | 38.69696 | -121.59273 | 29 ft | 21 kts | 90° |
| 2026-05-04 01:00 | 38.69694 | -121.59136 | 29 ft | 6 kts | 92° |
| 2026-05-04 01:00 | 38.69662 | -121.59110 | 29 ft | 8 kts | 199° |
| 2026-05-04 01:00 | 38.69623 | -121.59131 | 29 ft | 4 kts | 202° |
| 2026-05-04 01:01 | 38.69619 | -121.59132 | 29 ft | 0 kts | 202° |